Historyczne dane pomiarowe

Dodano dane terminowe – wersja testowa.

Dane z okresu 1951-2019

Wersja bazy: 1.34 [2019-03-16, lista zmian], aktualizacja planowana na 2019-04-15

Dane meteo z obszaru Polski uzyskane na podstawie danych udostępnionych przez Instytut Meteorologii i Gospodarki Wodnej – Państwowy Instytut Badawczy.

 

Wybierz Datę:    

       

TemperaturaWilgotnośćWiatrCiśnienieOpadyŚniegCzas trwania zjawisk
 Stacja t tx tn tng RH VA  wxwx mslp ppp RRR   cm mm wxwxwxwxwxwxwx
1999-08-14 17.0 21.6 11.2- 70.5- 6.0 1.3---- 0.0------------
1999-08-13 17.6 22.7 11.6- 84.8- 5.3 1.0---- 0.0------------
1999-08-12 17.5 22.5 11.1- 69.3- 4.7 1.0---- 0.0------------
1999-08-11 19.5 25.1 12.6- 65.0- 2.7 0.7---- 0.0------------
1999-08-10 19.6 24.6 13.0- 74.5- 3.0 1.0---- 2.0------------
1999-08-09 18.4 25.9 11.1- 82.8- 5.3 1.3---- 1.5------------
1999-08-08 22.5 27.3 16.3- 73.3- 2.0 0.3---- 0.0------------
1999-08-07 18.3 23.6 10.6- 73.3- 2.0 0.3---- 0.0------------
1999-08-06 18.5 24.2 12.0- 76.5- 4.7 1.0---- 0.0------------
1999-08-05 19.9 24.8 13.0- 72.8- 3.7 0.7---- 0.0------------
1999-08-04 23.0 28.9 15.3- 55.0- 2.3 0.3---- 0.0------------
1999-08-03 19.3 29.4 7.7- 60.8- 3.0 0.7---- 0.0------------
1999-08-02 24.4 30.4 16.0- 76.0- 3.7 0.3---- 0.0------------
1999-08-01 14.8 23.1 7.0- 72.3- 4.0 1.0---- 0.0------------
1999-07-31 19.9 26.7 11.5- 61.3- 0.0 1.3---- 0.0------------
1999-07-30 17.9 24.9 8.7- 64.8- 0.0 1.3---- 0.0------------
1999-07-29 17.2 24.1 7.9- 66.3- 1.3 0.7---- 0.0------------
1999-07-28 16.8 22.6 8.3- 65.3- 1.7 1.7---- 0.0------------
1999-07-27 15.9 20.7 9.8- 73.5- 3.3 1.7---- 0.0------------
1999-07-26 17.7 22.5 15.4- 70.0- 4.7 1.7---- 0.0------------
1999-07-25 19.8 24.2 14.8- 77.0- 3.7 1.0---- 0.5------------
1999-07-24 15.9 17.1 14.0- 83.0- 7.3 2.0---- 0.0------------
1999-07-23 15.6 19.5 12.1- 87.3- 7.7 1.3---- 0.8------------
1999-07-22 17.2 21.5 12.7- 63.8- 3.3 2.7---- 0.0------------
1999-07-21 20.8 24.9 17.3- 76.0- 6.3 2.0---- 0.0------------
1999-07-20 23.1 29.7 16.9- 62.0- 4.3 1.7---- 0.0------------
1999-07-19 23.2 30.3 15.3- 65.3- 5.7 0.7---- 0.0------------
1999-07-18 19.6 25.5 13.8- 72.3- 3.7 1.0---- 0.0------------
1999-07-17 18.4 22.9 13.9- 74.0- 6.7 1.3---- 0.0------------
1999-07-16 15.8 20.3 10.1- 72.8- 5.0 1.0---- 0.0------------
1999-07-15 15.7 19.4 12.9- 80.3- 7.0 2.3---- 0.0------------
1999-07-14 20.2 24.5 17.3- 89.3- 6.7 1.7---- 9.4------------
1999-07-13 22.3 28.9 18.1- 73.3- 7.0 1.0---- 17.1------------
1999-07-12 23.7 29.4 16.3- 52.8- 2.7 2.0---- 0.0------------
1999-07-11 22.5 29.0 13.7- 50.3- 1.0 1.7---- 0.0------------
1999-07-10 20.3 27.0 10.9- 55.5- 2.0 2.3---- 0.0------------
1999-07-09 17.9 22.2 13.4- 65.0- 2.0 3.3---- 0.0------------
1999-07-08 17.5 21.0 12.9- 75.5- 4.3 2.7---- 0.0------------
1999-07-07 16.9 19.7 13.3- 85.0- 7.3 2.0---- 0.0------------
1999-07-06 20.9 29.5 17.0- 90.0- 7.3 1.3---- 8.3------------
1999-07-05 25.1 33.7 15.5- 58.8- 5.7 2.0---- 10.8------------
1999-07-04 21.2 25.2 17.8- 77.5- 4.0 1.3---- 0.0------------
1999-07-03 20.4 24.6 15.5- 74.3- 6.0 1.7---- 4.8------------
1999-07-02 16.8 21.6 10.2- 76.3- 5.7 1.0---- 0.0------------
1999-07-01 17.6 20.6 15.7- 84.0- 7.3 1.3---- 2.1------------
1999-06-30 20.4 26.3 14.7- 64.3- 4.7 1.3---- 3.3------------
1999-06-29 17.9 22.9 12.2- 65.3- 2.7 1.3---- 0.0------------
1999-06-28 19.9 25.8 16.3- 75.0- 4.3 1.3---- 0.0------------
1999-06-27 18.7 23.9 11.2- 78.5- 6.7 1.7---- 0.9------------
1999-06-26 13.2 19.1 4.6- 74.5- 7.0 1.3---- 12.0------------
1999-06-25 11.2 16.8 4.7- 86.8- 5.7 1.0---- 6.8------------
1999-06-24 11.9 17.5 4.6- 70.8- 3.7 1.0---- 0.8------------
1999-06-23 13.1 15.1 10.2- 63.8- 5.3 2.0---- 0.7------------
1999-06-22 11.6 16.3 6.1- 85.3- 5.7 1.7---- 4.5------------
1999-06-21 16.0 21.0 14.2- 83.3- 6.3 1.3---- 0.0------------
1999-06-20 18.2 22.9 11.7- 66.5- 3.3 2.3---- 0.0------------
1999-06-19 16.3 20.5 11.7- 78.8- 5.7 1.3---- 0.0------------
1999-06-18 17.0 21.2 14.2- 78.8- 2.3 2.3---- 0.0------------
1999-06-17 17.3 23.4 9.2- 74.5- 3.0 0.7---- 0.0------------
1999-06-16 16.4 21.9 9.7- 81.0- 2.0 0.7---- 0.0------------
326.7 ms

 

Źródłem pochodzenia danych jest Instytut Meteorologii i Gospodarki Wodnej – Państwowy Instytut Badawczy. Dane Instytutu Meteorologii i Gospodarki Wodnej – Państwowego Instytutu Badawczego zostały przetworzone.

Dane źródłowe można odnaleźć na stronie https://dane.imgw.pl